sensor_id;sensor_type;location;lat;lon;timestamp;P1;durP1;ratioP1;P2;durP2;ratioP2
35795;SDS011;21916;52.428;13.302;2023-05-02T00:00:46;7.63;;;4.93;;
35795;SDS011;21916;52.428;13.302;2023-05-02T00:03:12;10.27;;;5.72;;
35795;SDS011;21916;52.428;13.302;2023-05-02T00:05:38;9.73;;;6.43;;
35795;SDS011;21916;52.428;13.302;2023-05-02T00:08:05;9.15;;;5.35;;
35795;SDS011;21916;52.428;13.302;2023-05-02T00:10:31;11.25;;;6.22;;
35795;SDS011;21916;52.428;13.302;2023-05-02T00:12:57;10.43;;;5.65;;
35795;SDS011;21916;52.428;13.302;2023-05-02T00:15:23;9.80;;;5.90;;
35795;SDS011;21916;52.428;13.302;2023-05-02T00:17:51;12.23;;;6.57;;
35795;SDS011;21916;52.428;13.302;2023-05-02T00:20:17;8.45;;;5.85;;
35795;SDS011;21916;52.428;13.302;2023-05-02T00:22:43;8.82;;;5.40;;
35795;SDS011;21916;52.428;13.302;2023-05-02T00:25:09;7.15;;;4.90;;
35795;SDS011;21916;52.428;13.302;2023-05-02T00:27:40;8.90;;;5.15;;
35795;SDS011;21916;52.428;13.302;2023-05-02T00:30:07;9.85;;;4.93;;
35795;SDS011;21916;52.428;13.302;2023-05-02T00:32:34;8.25;;;6.00;;
35795;SDS011;21916;52.428;13.302;2023-05-02T00:35:00;8.60;;;4.63;;
35795;SDS011;21916;52.428;13.302;2023-05-02T00:37:25;7.78;;;4.55;;
35795;SDS011;21916;52.428;13.302;2023-05-02T00:39:53;7.75;;;4.65;;
35795;SDS011;21916;52.428;13.302;2023-05-02T00:42:19;8.23;;;5.40;;
35795;SDS011;21916;52.428;13.302;2023-05-02T00:44:45;9.10;;;4.90;;
35795;SDS011;21916;52.428;13.302;2023-05-02T00:47:11;8.43;;;4.55;;
35795;SDS011;21916;52.428;13.302;2023-05-02T00:49:38;10.80;;;5.55;;
35795;SDS011;21916;52.428;13.302;2023-05-02T00:52:07;11.82;;;5.35;;
35795;SDS011;21916;52.428;13.302;2023-05-02T00:54:34;9.70;;;4.93;;
35795;SDS011;21916;52.428;13.302;2023-05-02T00:57:02;10.98;;;5.07;;
35795;SDS011;21916;52.428;13.302;2023-05-02T00:59:28;10.13;;;4.97;;
35795;SDS011;21916;52.428;13.302;2023-05-02T01:04:45;10.55;;;5.60;;
35795;SDS011;21916;52.428;13.302;2023-05-02T01:13:00;8.15;;;5.22;;
35795;SDS011;21916;52.428;13.302;2023-05-02T01:15:31;9.00;;;5.18;;
35795;SDS011;21916;52.428;13.302;2023-05-02T01:18:01;8.27;;;4.88;;
35795;SDS011;21916;52.428;13.302;2023-05-02T01:20:28;11.18;;;5.65;;
35795;SDS011;21916;52.428;13.302;2023-05-02T01:22:59;8.38;;;5.00;;
35795;SDS011;21916;52.428;13.302;2023-05-02T01:28:35;8.50;;;5.10;;
35795;SDS011;21916;52.428;13.302;2023-05-02T01:31:22;8.10;;;6.10;;
35795;SDS011;21916;52.428;13.302;2023-05-02T01:33:52;9.30;;;4.97;;
35795;SDS011;21916;52.428;13.302;2023-05-02T01:36:21;9.35;;;5.15;;
35795;SDS011;21916;52.428;13.302;2023-05-02T01:38:51;10.77;;;5.57;;
35795;SDS011;21916;52.428;13.302;2023-05-02T01:41:19;7.90;;;5.30;;
35795;SDS011;21916;52.428;13.302;2023-05-02T01:43:47;8.73;;;6.10;;
35795;SDS011;21916;52.428;13.302;2023-05-02T01:46:14;9.85;;;4.90;;
35795;SDS011;21916;52.428;13.302;2023-05-02T01:48:41;7.82;;;5.25;;
35795;SDS011;21916;52.428;13.302;2023-05-02T01:51:11;11.93;;;5.90;;
35795;SDS011;21916;52.428;13.302;2023-05-02T01:53:39;7.90;;;5.00;;
35795;SDS011;21916;52.428;13.302;2023-05-02T01:56:06;8.50;;;5.05;;
35795;SDS011;21916;52.428;13.302;2023-05-02T01:58:32;9.80;;;5.28;;
35795;SDS011;21916;52.428;13.302;2023-05-02T02:01:00;10.63;;;5.38;;
35795;SDS011;21916;52.428;13.302;2023-05-02T02:03:28;11.63;;;6.10;;
35795;SDS011;21916;52.428;13.302;2023-05-02T02:05:56;6.75;;;4.55;;
35795;SDS011;21916;52.428;13.302;2023-05-02T02:08:23;6.93;;;4.80;;
35795;SDS011;21916;52.428;13.302;2023-05-02T02:10:53;7.65;;;5.45;;
35795;SDS011;21916;52.428;13.302;2023-05-02T02:13:25;10.15;;;5.20;;
35795;SDS011;21916;52.428;13.302;2023-05-02T02:15:58;8.63;;;4.68;;
35795;SDS011;21916;52.428;13.302;2023-05-02T02:18:29;9.98;;;5.03;;
35795;SDS011;21916;52.428;13.302;2023-05-02T02:21:00;13.02;;;4.57;;
35795;SDS011;21916;52.428;13.302;2023-05-02T02:23:29;8.50;;;4.70;;
35795;SDS011;21916;52.428;13.302;2023-05-02T02:25:58;7.28;;;4.93;;
35795;SDS011;21916;52.428;13.302;2023-05-02T02:28:26;8.82;;;5.53;;
35795;SDS011;21916;52.428;13.302;2023-05-02T02:30:53;6.57;;;4.43;;
35795;SDS011;21916;52.428;13.302;2023-05-02T02:33:21;7.63;;;4.93;;
35795;SDS011;21916;52.428;13.302;2023-05-02T02:35:52;6.97;;;4.70;;
35795;SDS011;21916;52.428;13.302;2023-05-02T02:41:18;12.60;;;5.45;;
35795;SDS011;21916;52.428;13.302;2023-05-02T02:46:53;9.70;;;4.80;;
35795;SDS011;21916;52.428;13.302;2023-05-02T02:52:32;8.75;;;4.57;;
35795;SDS011;21916;52.428;13.302;2023-05-02T02:55:36;9.43;;;4.72;;
35795;SDS011;21916;52.428;13.302;2023-05-02T03:01:10;6.53;;;4.70;;
35795;SDS011;21916;52.428;13.302;2023-05-02T03:03:42;7.30;;;4.40;;
35795;SDS011;21916;52.428;13.302;2023-05-02T03:06:09;8.05;;;4.40;;
35795;SDS011;21916;52.428;13.302;2023-05-02T03:08:39;10.68;;;4.85;;
35795;SDS011;21916;52.428;13.302;2023-05-02T03:11:06;7.88;;;4.70;;
35795;SDS011;21916;52.428;13.302;2023-05-02T03:13:33;8.18;;;4.30;;
35795;SDS011;21916;52.428;13.302;2023-05-02T03:16:05;8.20;;;4.75;;
35795;SDS011;21916;52.428;13.302;2023-05-02T03:18:39;10.77;;;4.63;;
35795;SDS011;21916;52.428;13.302;2023-05-02T03:21:05;7.38;;;4.88;;
35795;SDS011;21916;52.428;13.302;2023-05-02T03:23:31;6.78;;;4.38;;
35795;SDS011;21916;52.428;13.302;2023-05-02T03:25:57;6.68;;;4.32;;
35795;SDS011;21916;52.428;13.302;2023-05-02T03:28:24;12.25;;;5.07;;
35795;SDS011;21916;52.428;13.302;2023-05-02T03:30:51;9.95;;;4.90;;
35795;SDS011;21916;52.428;13.302;2023-05-02T03:33:19;7.88;;;4.50;;
35795;SDS011;21916;52.428;13.302;2023-05-02T03:35:45;8.70;;;4.68;;
35795;SDS011;21916;52.428;13.302;2023-05-02T03:38:12;10.02;;;4.38;;
35795;SDS011;21916;52.428;13.302;2023-05-02T03:40:38;7.97;;;4.78;;
35795;SDS011;21916;52.428;13.302;2023-05-02T03:43:08;6.68;;;4.32;;
35795;SDS011;21916;52.428;13.302;2023-05-02T03:45:34;9.45;;;4.10;;
35795;SDS011;21916;52.428;13.302;2023-05-02T03:48:00;6.50;;;4.30;;
35795;SDS011;21916;52.428;13.302;2023-05-02T03:50:26;7.47;;;4.45;;
35795;SDS011;21916;52.428;13.302;2023-05-02T03:52:54;7.43;;;4.50;;
35795;SDS011;21916;52.428;13.302;2023-05-02T03:55:27;9.60;;;4.03;;
35795;SDS011;21916;52.428;13.302;2023-05-02T03:57:57;9.20;;;4.93;;
35795;SDS011;21916;52.428;13.302;2023-05-02T04:00:23;8.15;;;4.15;;
35795;SDS011;21916;52.428;13.302;2023-05-02T04:02:56;6.70;;;4.03;;
35795;SDS011;21916;52.428;13.302;2023-05-02T04:05:25;5.90;;;3.92;;
35795;SDS011;21916;52.428;13.302;2023-05-02T04:07:51;7.38;;;3.72;;
35795;SDS011;21916;52.428;13.302;2023-05-02T04:10:17;9.27;;;4.50;;
35795;SDS011;21916;52.428;13.302;2023-05-02T04:12:50;6.47;;;3.70;;
35795;SDS011;21916;52.428;13.302;2023-05-02T04:15:17;7.78;;;3.90;;
35795;SDS011;21916;52.428;13.302;2023-05-02T04:17:45;5.38;;;3.42;;
35795;SDS011;21916;52.428;13.302;2023-05-02T04:20:12;8.82;;;3.67;;
35795;SDS011;21916;52.428;13.302;2023-05-02T04:22:43;8.98;;;3.50;;
35795;SDS011;21916;52.428;13.302;2023-05-02T04:25:09;7.10;;;3.78;;
35795;SDS011;21916;52.428;13.302;2023-05-02T04:27:37;6.22;;;3.80;;
35795;SDS011;21916;52.428;13.302;2023-05-02T04:30:06;7.70;;;3.58;;
35795;SDS011;21916;52.428;13.302;2023-05-02T04:32:34;7.95;;;3.13;;
35795;SDS011;21916;52.428;13.302;2023-05-02T04:35:02;7.10;;;3.28;;
35795;SDS011;21916;52.428;13.302;2023-05-02T04:37:29;6.00;;;3.28;;
35795;SDS011;21916;52.428;13.302;2023-05-02T04:39:56;7.45;;;3.60;;
35795;SDS011;21916;52.428;13.302;2023-05-02T04:42:25;6.28;;;3.25;;
35795;SDS011;21916;52.428;13.302;2023-05-02T04:45:00;6.45;;;3.78;;
35795;SDS011;21916;52.428;13.302;2023-05-02T04:47:26;6.22;;;3.33;;
35795;SDS011;21916;52.428;13.302;2023-05-02T04:49:52;8.20;;;3.53;;
35795;SDS011;21916;52.428;13.302;2023-05-02T04:52:18;6.40;;;4.20;;
35795;SDS011;21916;52.428;13.302;2023-05-02T04:54:44;7.47;;;3.88;;
35795;SDS011;21916;52.428;13.302;2023-05-02T04:57:10;9.45;;;4.05;;
35795;SDS011;21916;52.428;13.302;2023-05-02T04:59:40;7.35;;;4.47;;
35795;SDS011;21916;52.428;13.302;2023-05-02T05:02:07;7.57;;;3.63;;
35795;SDS011;21916;52.428;13.302;2023-05-02T05:04:37;7.53;;;3.45;;
35795;SDS011;21916;52.428;13.302;2023-05-02T05:07:04;12.10;;;3.45;;
35795;SDS011;21916;52.428;13.302;2023-05-02T05:09:31;8.10;;;3.53;;
35795;SDS011;21916;52.428;13.302;2023-05-02T05:11:57;6.00;;;3.33;;
35795;SDS011;21916;52.428;13.302;2023-05-02T05:14:24;5.60;;;3.25;;
35795;SDS011;21916;52.428;13.302;2023-05-02T05:16:52;7.63;;;3.35;;
35795;SDS011;21916;52.428;13.302;2023-05-02T05:19:19;6.68;;;3.10;;
35795;SDS011;21916;52.428;13.302;2023-05-02T05:21:45;8.45;;;3.72;;
35795;SDS011;21916;52.428;13.302;2023-05-02T05:24:17;7.78;;;4.10;;
35795;SDS011;21916;52.428;13.302;2023-05-02T05:26:43;6.82;;;3.70;;
35795;SDS011;21916;52.428;13.302;2023-05-02T05:29:10;12.45;;;4.28;;
35795;SDS011;21916;52.428;13.302;2023-05-02T05:31:39;12.95;;;3.80;;
35795;SDS011;21916;52.428;13.302;2023-05-02T05:34:07;9.82;;;3.67;;
35795;SDS011;21916;52.428;13.302;2023-05-02T05:36:33;5.50;;;4.10;;
35795;SDS011;21916;52.428;13.302;2023-05-02T05:39:01;8.85;;;4.80;;
35795;SDS011;21916;52.428;13.302;2023-05-02T05:41:30;11.25;;;4.45;;
35795;SDS011;21916;52.428;13.302;2023-05-02T05:44:01;8.60;;;4.47;;
35795;SDS011;21916;52.428;13.302;2023-05-02T05:46:28;7.82;;;3.97;;
35795;SDS011;21916;52.428;13.302;2023-05-02T05:48:55;8.02;;;5.97;;
35795;SDS011;21916;52.428;13.302;2023-05-02T05:51:21;10.25;;;4.35;;
35795;SDS011;21916;52.428;13.302;2023-05-02T05:53:48;7.70;;;4.30;;
35795;SDS011;21916;52.428;13.302;2023-05-02T05:56:15;8.20;;;4.35;;
35795;SDS011;21916;52.428;13.302;2023-05-02T05:58:49;9.43;;;4.90;;
35795;SDS011;21916;52.428;13.302;2023-05-02T06:01:15;8.15;;;5.22;;
35795;SDS011;21916;52.428;13.302;2023-05-02T06:03:41;12.13;;;5.22;;
35795;SDS011;21916;52.428;13.302;2023-05-02T06:06:07;7.80;;;5.30;;
35795;SDS011;21916;52.428;13.302;2023-05-02T06:08:33;12.63;;;5.57;;
35795;SDS011;21916;52.428;13.302;2023-05-02T06:10:59;8.27;;;5.72;;
35795;SDS011;21916;52.428;13.302;2023-05-02T06:13:25;8.32;;;5.40;;
35795;SDS011;21916;52.428;13.302;2023-05-02T06:15:51;14.40;;;6.50;;
35795;SDS011;21916;52.428;13.302;2023-05-02T06:18:18;9.70;;;6.13;;
35795;SDS011;21916;52.428;13.302;2023-05-02T06:20:43;11.63;;;6.10;;
35795;SDS011;21916;52.428;13.302;2023-05-02T06:23:10;9.73;;;6.15;;
35795;SDS011;21916;52.428;13.302;2023-05-02T06:25:36;11.85;;;7.22;;
35795;SDS011;21916;52.428;13.302;2023-05-02T06:28:02;12.13;;;8.00;;
35795;SDS011;21916;52.428;13.302;2023-05-02T06:30:29;13.57;;;6.97;;
35795;SDS011;21916;52.428;13.302;2023-05-02T06:32:55;16.27;;;9.32;;
35795;SDS011;21916;52.428;13.302;2023-05-02T06:35:21;12.27;;;7.82;;
35795;SDS011;21916;52.428;13.302;2023-05-02T06:37:47;15.18;;;9.10;;
35795;SDS011;21916;52.428;13.302;2023-05-02T06:40:13;15.25;;;8.95;;
35795;SDS011;21916;52.428;13.302;2023-05-02T06:42:39;14.27;;;9.45;;
35795;SDS011;21916;52.428;13.302;2023-05-02T06:45:05;15.43;;;9.05;;
35795;SDS011;21916;52.428;13.302;2023-05-02T06:47:32;21.80;;;10.77;;
35795;SDS011;21916;52.428;13.302;2023-05-02T06:49:57;17.00;;;9.32;;
35795;SDS011;21916;52.428;13.302;2023-05-02T06:52:23;12.93;;;8.65;;
35795;SDS011;21916;52.428;13.302;2023-05-02T06:54:49;18.00;;;9.05;;
35795;SDS011;21916;52.428;13.302;2023-05-02T06:57:16;13.35;;;7.28;;
35795;SDS011;21916;52.428;13.302;2023-05-02T06:59:42;12.35;;;7.65;;
35795;SDS011;21916;52.428;13.302;2023-05-02T07:02:08;12.13;;;6.43;;
35795;SDS011;21916;52.428;13.302;2023-05-02T07:04:34;17.13;;;8.88;;
35795;SDS011;21916;52.428;13.302;2023-05-02T07:07:00;16.77;;;9.90;;
35795;SDS011;21916;52.428;13.302;2023-05-02T07:09:26;14.95;;;9.52;;
35795;SDS011;21916;52.428;13.302;2023-05-02T07:11:52;18.92;;;9.18;;
35795;SDS011;21916;52.428;13.302;2023-05-02T07:14:18;16.40;;;9.90;;
35795;SDS011;21916;52.428;13.302;2023-05-02T07:16:44;13.60;;;8.18;;
35795;SDS011;21916;52.428;13.302;2023-05-02T07:19:10;16.42;;;10.02;;
35795;SDS011;21916;52.428;13.302;2023-05-02T07:21:36;15.48;;;8.85;;
35795;SDS011;21916;52.428;13.302;2023-05-02T07:24:02;13.43;;;9.25;;
35795;SDS011;21916;52.428;13.302;2023-05-02T07:26:28;14.15;;;8.10;;
35795;SDS011;21916;52.428;13.302;2023-05-02T07:28:54;14.40;;;9.68;;
35795;SDS011;21916;52.428;13.302;2023-05-02T07:31:20;18.02;;;8.65;;
35795;SDS011;21916;52.428;13.302;2023-05-02T07:33:46;14.02;;;8.20;;
35795;SDS011;21916;52.428;13.302;2023-05-02T07:36:12;15.32;;;7.43;;
35795;SDS011;21916;52.428;13.302;2023-05-02T07:38:38;11.13;;;6.78;;
35795;SDS011;21916;52.428;13.302;2023-05-02T07:41:04;12.05;;;8.02;;
35795;SDS011;21916;52.428;13.302;2023-05-02T07:43:30;11.13;;;7.15;;
35795;SDS011;21916;52.428;13.302;2023-05-02T07:45:56;11.30;;;6.95;;
35795;SDS011;21916;52.428;13.302;2023-05-02T07:48:22;10.20;;;5.88;;
35795;SDS011;21916;52.428;13.302;2023-05-02T07:50:48;11.82;;;7.28;;
35795;SDS011;21916;52.428;13.302;2023-05-02T07:53:14;15.20;;;6.82;;
35795;SDS011;21916;52.428;13.302;2023-05-02T07:55:40;12.68;;;5.90;;
35795;SDS011;21916;52.428;13.302;2023-05-02T07:58:06;13.43;;;7.80;;
35795;SDS011;21916;52.428;13.302;2023-05-02T08:00:32;13.52;;;7.75;;
35795;SDS011;21916;52.428;13.302;2023-05-02T08:02:58;12.13;;;7.45;;
35795;SDS011;21916;52.428;13.302;2023-05-02T08:05:24;14.07;;;8.55;;
35795;SDS011;21916;52.428;13.302;2023-05-02T08:07:51;15.40;;;7.93;;
35795;SDS011;21916;52.428;13.302;2023-05-02T08:10:17;14.77;;;8.30;;
35795;SDS011;21916;52.428;13.302;2023-05-02T08:12:43;16.02;;;8.27;;
35795;SDS011;21916;52.428;13.302;2023-05-02T08:15:11;12.82;;;8.05;;
35795;SDS011;21916;52.428;13.302;2023-05-02T08:17:40;12.90;;;5.53;;
35795;SDS011;21916;52.428;13.302;2023-05-02T08:20:07;11.93;;;6.40;;
35795;SDS011;21916;52.428;13.302;2023-05-02T08:22:33;13.13;;;7.65;;
35795;SDS011;21916;52.428;13.302;2023-05-02T08:25:02;10.07;;;6.50;;
35795;SDS011;21916;52.428;13.302;2023-05-02T08:27:28;10.32;;;6.47;;
35795;SDS011;21916;52.428;13.302;2023-05-02T08:29:54;7.68;;;4.82;;
35795;SDS011;21916;52.428;13.302;2023-05-02T08:32:20;7.93;;;5.25;;
35795;SDS011;21916;52.428;13.302;2023-05-02T08:34:46;8.93;;;6.00;;
35795;SDS011;21916;52.428;13.302;2023-05-02T08:37:12;8.25;;;5.30;;
35795;SDS011;21916;52.428;13.302;2023-05-02T08:39:38;6.95;;;4.85;;
35795;SDS011;21916;52.428;13.302;2023-05-02T08:42:05;8.77;;;5.97;;
35795;SDS011;21916;52.428;13.302;2023-05-02T08:44:35;5.97;;;4.70;;
35795;SDS011;21916;52.428;13.302;2023-05-02T08:47:02;12.98;;;5.72;;
35795;SDS011;21916;52.428;13.302;2023-05-02T08:49:30;5.75;;;4.07;;
35795;SDS011;21916;52.428;13.302;2023-05-02T08:52:00;6.00;;;3.22;;
35795;SDS011;21916;52.428;13.302;2023-05-02T08:54:26;5.20;;;3.58;;
35795;SDS011;21916;52.428;13.302;2023-05-02T08:56:53;5.70;;;3.80;;
35795;SDS011;21916;52.428;13.302;2023-05-02T08:59:20;4.97;;;3.45;;
35795;SDS011;21916;52.428;13.302;2023-05-02T09:01:48;8.98;;;3.88;;
35795;SDS011;21916;52.428;13.302;2023-05-02T09:04:18;7.80;;;4.65;;
35795;SDS011;21916;52.428;13.302;2023-05-02T09:06:48;7.85;;;4.97;;
35795;SDS011;21916;52.428;13.302;2023-05-02T09:09:13;7.50;;;3.67;;
35795;SDS011;21916;52.428;13.302;2023-05-02T09:11:39;5.95;;;3.42;;
35795;SDS011;21916;52.428;13.302;2023-05-02T09:14:15;5.20;;;3.20;;
35795;SDS011;21916;52.428;13.302;2023-05-02T09:16:42;6.25;;;3.55;;
35795;SDS011;21916;52.428;13.302;2023-05-02T09:19:08;3.92;;;2.90;;
35795;SDS011;21916;52.428;13.302;2023-05-02T09:21:35;3.83;;;3.22;;
35795;SDS011;21916;52.428;13.302;2023-05-02T09:24:16;5.70;;;2.97;;
35795;SDS011;21916;52.428;13.302;2023-05-02T09:27:04;4.65;;;3.08;;
35795;SDS011;21916;52.428;13.302;2023-05-02T09:29:30;6.22;;;3.72;;
35795;SDS011;21916;52.428;13.302;2023-05-02T09:32:02;7.57;;;3.38;;
35795;SDS011;21916;52.428;13.302;2023-05-02T09:34:29;8.18;;;4.10;;
35795;SDS011;21916;52.428;13.302;2023-05-02T09:36:56;6.03;;;3.72;;
35795;SDS011;21916;52.428;13.302;2023-05-02T09:39:26;5.90;;;3.97;;
35795;SDS011;21916;52.428;13.302;2023-05-02T09:41:56;6.68;;;4.50;;
35795;SDS011;21916;52.428;13.302;2023-05-02T09:44:25;7.72;;;3.92;;
35795;SDS011;21916;52.428;13.302;2023-05-02T09:46:52;7.47;;;4.13;;
35795;SDS011;21916;52.428;13.302;2023-05-02T09:49:37;6.70;;;4.93;;
35795;SDS011;21916;52.428;13.302;2023-05-02T09:52:14;6.07;;;4.32;;
35795;SDS011;21916;52.428;13.302;2023-05-02T09:54:42;6.22;;;4.35;;
35795;SDS011;21916;52.428;13.302;2023-05-02T09:57:08;7.00;;;4.85;;
35795;SDS011;21916;52.428;13.302;2023-05-02T09:59:35;7.25;;;4.90;;
35795;SDS011;21916;52.428;13.302;2023-05-02T10:02:02;7.68;;;4.93;;
35795;SDS011;21916;52.428;13.302;2023-05-02T10:04:30;6.25;;;4.25;;
35795;SDS011;21916;52.428;13.302;2023-05-02T10:06:57;9.30;;;4.63;;
35795;SDS011;21916;52.428;13.302;2023-05-02T10:09:24;8.63;;;5.13;;
35795;SDS011;21916;52.428;13.302;2023-05-02T10:11:52;9.05;;;5.88;;
35795;SDS011;21916;52.428;13.302;2023-05-02T10:14:19;7.15;;;4.72;;
35795;SDS011;21916;52.428;13.302;2023-05-02T10:19:39;7.40;;;4.25;;
35795;SDS011;21916;52.428;13.302;2023-05-02T10:22:12;6.43;;;3.83;;
35795;SDS011;21916;52.428;13.302;2023-05-02T10:24:40;4.97;;;3.05;;
35795;SDS011;21916;52.428;13.302;2023-05-02T10:27:06;8.60;;;3.40;;
35795;SDS011;21916;52.428;13.302;2023-05-02T10:29:32;5.85;;;2.88;;
35795;SDS011;21916;52.428;13.302;2023-05-02T10:31:59;3.58;;;2.22;;
35795;SDS011;21916;52.428;13.302;2023-05-02T10:34:31;4.50;;;2.10;;
35795;SDS011;21916;52.428;13.302;2023-05-02T10:36:58;3.40;;;1.83;;
35795;SDS011;21916;52.428;13.302;2023-05-02T10:39:27;4.78;;;2.72;;
35795;SDS011;21916;52.428;13.302;2023-05-02T10:41:54;4.00;;;2.15;;
35795;SDS011;21916;52.428;13.302;2023-05-02T10:44:35;4.43;;;2.60;;
35795;SDS011;21916;52.428;13.302;2023-05-02T10:47:22;3.53;;;2.60;;
35795;SDS011;21916;52.428;13.302;2023-05-02T10:49:49;5.90;;;2.20;;
35795;SDS011;21916;52.428;13.302;2023-05-02T11:00:22;5.43;;;2.85;;
35795;SDS011;21916;52.428;13.302;2023-05-02T11:02:52;4.28;;;2.70;;
35795;SDS011;21916;52.428;13.302;2023-05-02T11:05:18;7.43;;;3.42;;
35795;SDS011;21916;52.428;13.302;2023-05-02T11:07:46;8.57;;;3.92;;
35795;SDS011;21916;52.428;13.302;2023-05-02T11:12:51;11.90;;;6.15;;
35795;SDS011;21916;52.428;13.302;2023-05-02T11:18:08;10.25;;;6.30;;
35795;SDS011;21916;52.428;13.302;2023-05-02T11:20:37;11.75;;;5.65;;
35795;SDS011;21916;52.428;13.302;2023-05-02T11:25:46;11.07;;;6.07;;
35795;SDS011;21916;52.428;13.302;2023-05-02T11:28:41;15.75;;;5.45;;
35795;SDS011;21916;52.428;13.302;2023-05-02T11:33:57;8.95;;;4.28;;
35795;SDS011;21916;52.428;13.302;2023-05-02T11:36:27;9.68;;;4.75;;
35795;SDS011;21916;52.428;13.302;2023-05-02T11:38:54;11.90;;;4.38;;
35795;SDS011;21916;52.428;13.302;2023-05-02T11:41:20;11.73;;;4.55;;
35795;SDS011;21916;52.428;13.302;2023-05-02T11:43:46;13.52;;;4.43;;
35795;SDS011;21916;52.428;13.302;2023-05-02T11:46:13;13.30;;;4.30;;
35795;SDS011;21916;52.428;13.302;2023-05-02T11:48:39;9.35;;;4.00;;
35795;SDS011;21916;52.428;13.302;2023-05-02T11:51:06;10.32;;;4.47;;
35795;SDS011;21916;52.428;13.302;2023-05-02T11:53:32;13.85;;;4.00;;
35795;SDS011;21916;52.428;13.302;2023-05-02T11:56:02;8.13;;;3.88;;
35795;SDS011;21916;52.428;13.302;2023-05-02T11:58:29;9.32;;;3.95;;
35795;SDS011;21916;52.428;13.302;2023-05-02T12:00:57;9.30;;;4.07;;
35795;SDS011;21916;52.428;13.302;2023-05-02T12:03:36;13.30;;;4.03;;
35795;SDS011;21916;52.428;13.302;2023-05-02T12:06:09;8.02;;;4.18;;
35795;SDS011;21916;52.428;13.302;2023-05-02T12:08:36;9.27;;;3.40;;
35795;SDS011;21916;52.428;13.302;2023-05-02T12:11:08;7.50;;;3.15;;
35795;SDS011;21916;52.428;13.302;2023-05-02T12:13:43;11.57;;;4.53;;
35795;SDS011;21916;52.428;13.302;2023-05-02T12:16:11;8.23;;;3.80;;
35795;SDS011;21916;52.428;13.302;2023-05-02T12:18:37;6.28;;;2.55;;
35795;SDS011;21916;52.428;13.302;2023-05-02T12:21:04;9.75;;;3.88;;
35795;SDS011;21916;52.428;13.302;2023-05-02T12:23:30;16.83;;;3.60;;
35795;SDS011;21916;52.428;13.302;2023-05-02T12:25:56;12.57;;;3.65;;
35795;SDS011;21916;52.428;13.302;2023-05-02T12:28:23;11.75;;;3.92;;
35795;SDS011;21916;52.428;13.302;2023-05-02T12:30:49;13.95;;;3.63;;
35795;SDS011;21916;52.428;13.302;2023-05-02T12:33:16;8.65;;;3.65;;
35795;SDS011;21916;52.428;13.302;2023-05-02T12:35:42;12.02;;;3.70;;
35795;SDS011;21916;52.428;13.302;2023-05-02T12:38:12;8.82;;;3.75;;
35795;SDS011;21916;52.428;13.302;2023-05-02T12:40:47;10.10;;;3.53;;
35795;SDS011;21916;52.428;13.302;2023-05-02T12:43:14;13.65;;;3.65;;
35795;SDS011;21916;52.428;13.302;2023-05-02T12:45:40;10.95;;;3.40;;
35795;SDS011;21916;52.428;13.302;2023-05-02T12:48:24;12.27;;;4.05;;
35795;SDS011;21916;52.428;13.302;2023-05-02T12:50:51;10.15;;;3.13;;
35795;SDS011;21916;52.428;13.302;2023-05-02T12:56:05;7.93;;;3.42;;
35795;SDS011;21916;52.428;13.302;2023-05-02T12:58:39;7.53;;;2.85;;
35795;SDS011;21916;52.428;13.302;2023-05-02T13:01:06;8.82;;;3.53;;
35795;SDS011;21916;52.428;13.302;2023-05-02T13:03:32;11.85;;;3.47;;
35795;SDS011;21916;52.428;13.302;2023-05-02T13:05:58;9.93;;;3.15;;
35795;SDS011;21916;52.428;13.302;2023-05-02T13:08:24;12.63;;;3.35;;
35795;SDS011;21916;52.428;13.302;2023-05-02T13:10:50;9.00;;;2.88;;
35795;SDS011;21916;52.428;13.302;2023-05-02T13:13:15;17.23;;;4.63;;
35795;SDS011;21916;52.428;13.302;2023-05-02T13:15:41;12.48;;;3.08;;
35795;SDS011;21916;52.428;13.302;2023-05-02T13:18:07;10.85;;;3.42;;
35795;SDS011;21916;52.428;13.302;2023-05-02T13:20:33;9.10;;;3.20;;
35795;SDS011;21916;52.428;13.302;2023-05-02T13:22:59;12.85;;;3.30;;
35795;SDS011;21916;52.428;13.302;2023-05-02T13:25:25;10.00;;;3.60;;
35795;SDS011;21916;52.428;13.302;2023-05-02T13:27:51;12.93;;;3.22;;
35795;SDS011;21916;52.428;13.302;2023-05-02T13:30:17;12.60;;;3.83;;
35795;SDS011;21916;52.428;13.302;2023-05-02T13:32:42;11.25;;;2.92;;
35795;SDS011;21916;52.428;13.302;2023-05-02T13:35:08;10.75;;;3.47;;
35795;SDS011;21916;52.428;13.302;2023-05-02T13:37:38;8.82;;;3.60;;
35795;SDS011;21916;52.428;13.302;2023-05-02T13:40:05;9.95;;;3.60;;
35795;SDS011;21916;52.428;13.302;2023-05-02T13:42:32;13.45;;;3.20;;
35795;SDS011;21916;52.428;13.302;2023-05-02T13:45:01;11.23;;;4.40;;
35795;SDS011;21916;52.428;13.302;2023-05-02T13:47:30;11.82;;;4.70;;
35795;SDS011;21916;52.428;13.302;2023-05-02T13:49:55;8.07;;;2.97;;
35795;SDS011;21916;52.428;13.302;2023-05-02T13:52:22;9.65;;;3.50;;
35795;SDS011;21916;52.428;13.302;2023-05-02T13:54:47;10.43;;;4.57;;
35795;SDS011;21916;52.428;13.302;2023-05-02T13:57:13;10.13;;;3.42;;
35795;SDS011;21916;52.428;13.302;2023-05-02T13:59:39;10.05;;;3.65;;
35795;SDS011;21916;52.428;13.302;2023-05-02T14:02:06;10.40;;;4.10;;
35795;SDS011;21916;52.428;13.302;2023-05-02T14:04:32;8.70;;;4.05;;
35795;SDS011;21916;52.428;13.302;2023-05-02T14:06:57;5.70;;;3.40;;
35795;SDS011;21916;52.428;13.302;2023-05-02T14:09:23;7.30;;;2.97;;
35795;SDS011;21916;52.428;13.302;2023-05-02T14:11:49;6.97;;;3.35;;
35795;SDS011;21916;52.428;13.302;2023-05-02T14:14:16;9.90;;;3.53;;
35795;SDS011;21916;52.428;13.302;2023-05-02T14:16:42;11.27;;;3.92;;
35795;SDS011;21916;52.428;13.302;2023-05-02T14:19:07;12.30;;;3.70;;
35795;SDS011;21916;52.428;13.302;2023-05-02T14:21:33;8.80;;;3.60;;
35795;SDS011;21916;52.428;13.302;2023-05-02T14:23:59;11.05;;;3.42;;
35795;SDS011;21916;52.428;13.302;2023-05-02T14:26:25;4.47;;;2.95;;
35795;SDS011;21916;52.428;13.302;2023-05-02T14:28:51;8.98;;;3.83;;
35795;SDS011;21916;52.428;13.302;2023-05-02T14:31:17;10.07;;;3.30;;
35795;SDS011;21916;52.428;13.302;2023-05-02T14:33:43;12.98;;;3.75;;
35795;SDS011;21916;52.428;13.302;2023-05-02T14:36:10;10.80;;;3.47;;
35795;SDS011;21916;52.428;13.302;2023-05-02T14:38:37;7.70;;;3.67;;
35795;SDS011;21916;52.428;13.302;2023-05-02T14:41:02;12.75;;;3.40;;
35795;SDS011;21916;52.428;13.302;2023-05-02T14:43:30;8.73;;;3.97;;
35795;SDS011;21916;52.428;13.302;2023-05-02T14:45:56;11.95;;;3.97;;
35795;SDS011;21916;52.428;13.302;2023-05-02T14:48:23;8.52;;;3.38;;
35795;SDS011;21916;52.428;13.302;2023-05-02T14:50:49;15.00;;;4.38;;
35795;SDS011;21916;52.428;13.302;2023-05-02T14:53:15;7.47;;;3.40;;
35795;SDS011;21916;52.428;13.302;2023-05-02T14:55:41;12.75;;;4.15;;
35795;SDS011;21916;52.428;13.302;2023-05-02T14:58:07;11.90;;;4.18;;
35795;SDS011;21916;52.428;13.302;2023-05-02T15:00:35;10.52;;;3.92;;
35795;SDS011;21916;52.428;13.302;2023-05-02T15:03:05;6.82;;;3.65;;
35795;SDS011;21916;52.428;13.302;2023-05-02T15:05:31;7.55;;;3.58;;
35795;SDS011;21916;52.428;13.302;2023-05-02T15:07:58;13.77;;;4.05;;
35795;SDS011;21916;52.428;13.302;2023-05-02T15:10:28;10.57;;;4.22;;
35795;SDS011;21916;52.428;13.302;2023-05-02T15:12:54;12.45;;;3.13;;
35795;SDS011;21916;52.428;13.302;2023-05-02T15:15:20;7.57;;;3.30;;
35795;SDS011;21916;52.428;13.302;2023-05-02T15:17:50;9.15;;;4.32;;
35795;SDS011;21916;52.428;13.302;2023-05-02T15:20:19;10.40;;;4.07;;